sensor_id;sensor_type;location;lat;lon;timestamp;P1;durP1;ratioP1;P2;durP2;ratioP2
16727;SDS011;8482;54.396;18.590;2022-10-31T00:00:59;18.25;;;10.60;;
16727;SDS011;8482;54.396;18.590;2022-10-31T00:03:26;17.25;;;10.40;;
16727;SDS011;8482;54.396;18.590;2022-10-31T00:05:52;16.98;;;10.13;;
16727;SDS011;8482;54.396;18.590;2022-10-31T00:08:18;17.63;;;9.48;;
16727;SDS011;8482;54.396;18.590;2022-10-31T00:10:44;20.38;;;9.63;;
16727;SDS011;8482;54.396;18.590;2022-10-31T00:13:11;18.25;;;9.95;;
16727;SDS011;8482;54.396;18.590;2022-10-31T00:15:39;15.55;;;9.05;;
16727;SDS011;8482;54.396;18.590;2022-10-31T00:18:06;16.10;;;9.25;;
16727;SDS011;8482;54.396;18.590;2022-10-31T00:20:34;16.10;;;8.82;;
16727;SDS011;8482;54.396;18.590;2022-10-31T00:23:01;16.15;;;8.10;;
16727;SDS011;8482;54.396;18.590;2022-10-31T00:25:29;16.05;;;8.75;;
16727;SDS011;8482;54.396;18.590;2022-10-31T00:28:02;12.38;;;7.65;;
16727;SDS011;8482;54.396;18.590;2022-10-31T00:30:29;15.32;;;8.35;;
16727;SDS011;8482;54.396;18.590;2022-10-31T00:32:55;15.13;;;8.02;;
16727;SDS011;8482;54.396;18.590;2022-10-31T00:35:21;15.75;;;8.70;;
16727;SDS011;8482;54.396;18.590;2022-10-31T00:37:47;14.20;;;7.88;;
16727;SDS011;8482;54.396;18.590;2022-10-31T00:40:12;14.65;;;7.90;;
16727;SDS011;8482;54.396;18.590;2022-10-31T00:42:39;13.70;;;7.57;;
16727;SDS011;8482;54.396;18.590;2022-10-31T00:45:07;13.40;;;7.10;;
16727;SDS011;8482;54.396;18.590;2022-10-31T00:47:35;12.75;;;7.38;;
16727;SDS011;8482;54.396;18.590;2022-10-31T00:50:01;18.00;;;7.53;;
16727;SDS011;8482;54.396;18.590;2022-10-31T00:52:28;13.90;;;7.40;;
16727;SDS011;8482;54.396;18.590;2022-10-31T00:54:53;13.05;;;7.55;;
16727;SDS011;8482;54.396;18.590;2022-10-31T00:57:19;13.45;;;7.68;;
16727;SDS011;8482;54.396;18.590;2022-10-31T00:59:45;14.50;;;7.70;;
16727;SDS011;8482;54.396;18.590;2022-10-31T01:02:11;13.02;;;7.35;;
16727;SDS011;8482;54.396;18.590;2022-10-31T01:04:37;14.75;;;7.75;;
16727;SDS011;8482;54.396;18.590;2022-10-31T01:07:02;13.13;;;7.60;;
16727;SDS011;8482;54.396;18.590;2022-10-31T01:09:28;13.82;;;8.27;;
16727;SDS011;8482;54.396;18.590;2022-10-31T01:11:54;15.35;;;8.77;;
16727;SDS011;8482;54.396;18.590;2022-10-31T01:14:20;14.70;;;7.72;;
16727;SDS011;8482;54.396;18.590;2022-10-31T01:16:46;12.63;;;7.90;;
16727;SDS011;8482;54.396;18.590;2022-10-31T01:19:12;11.82;;;6.57;;
16727;SDS011;8482;54.396;18.590;2022-10-31T01:21:37;15.95;;;7.57;;
16727;SDS011;8482;54.396;18.590;2022-10-31T01:24:03;12.68;;;7.30;;
16727;SDS011;8482;54.396;18.590;2022-10-31T01:26:30;11.18;;;7.28;;
16727;SDS011;8482;54.396;18.590;2022-10-31T01:28:59;13.57;;;7.45;;
16727;SDS011;8482;54.396;18.590;2022-10-31T01:31:33;13.68;;;7.00;;
16727;SDS011;8482;54.396;18.590;2022-10-31T01:34:03;12.00;;;6.88;;
16727;SDS011;8482;54.396;18.590;2022-10-31T01:36:35;13.93;;;6.70;;
16727;SDS011;8482;54.396;18.590;2022-10-31T01:39:05;13.13;;;7.38;;
16727;SDS011;8482;54.396;18.590;2022-10-31T01:41:41;13.73;;;7.80;;
16727;SDS011;8482;54.396;18.590;2022-10-31T01:46:40;14.93;;;8.85;;
16727;SDS011;8482;54.396;18.590;2022-10-31T01:49:21;16.02;;;8.90;;
16727;SDS011;8482;54.396;18.590;2022-10-31T01:51:52;14.52;;;8.27;;
16727;SDS011;8482;54.396;18.590;2022-10-31T01:54:32;13.43;;;8.38;;
16727;SDS011;8482;54.396;18.590;2022-10-31T01:57:04;14.27;;;7.72;;
16727;SDS011;8482;54.396;18.590;2022-10-31T01:59:39;13.25;;;7.78;;
16727;SDS011;8482;54.396;18.590;2022-10-31T02:02:13;14.73;;;8.10;;
16727;SDS011;8482;54.396;18.590;2022-10-31T02:04:41;13.60;;;7.97;;
16727;SDS011;8482;54.396;18.590;2022-10-31T02:07:13;12.48;;;7.25;;
16727;SDS011;8482;54.396;18.590;2022-10-31T02:09:46;13.68;;;8.10;;
16727;SDS011;8482;54.396;18.590;2022-10-31T02:12:15;18.98;;;9.85;;
16727;SDS011;8482;54.396;18.590;2022-10-31T02:14:42;17.45;;;10.27;;
16727;SDS011;8482;54.396;18.590;2022-10-31T02:17:09;20.77;;;11.45;;
16727;SDS011;8482;54.396;18.590;2022-10-31T02:36:42;25.67;;;15.15;;
16727;SDS011;8482;54.396;18.590;2022-10-31T02:42:31;31.45;;;17.08;;
16727;SDS011;8482;54.396;18.590;2022-10-31T02:45:17;29.35;;;17.17;;
16727;SDS011;8482;54.396;18.590;2022-10-31T02:47:53;31.88;;;17.42;;
16727;SDS011;8482;54.396;18.590;2022-10-31T02:50:26;34.03;;;18.52;;
16727;SDS011;8482;54.396;18.590;2022-10-31T02:53:00;30.15;;;17.63;;
16727;SDS011;8482;54.396;18.590;2022-10-31T02:58:14;34.75;;;18.10;;
16727;SDS011;8482;54.396;18.590;2022-10-31T03:12:09;34.42;;;17.00;;
16727;SDS011;8482;54.396;18.590;2022-10-31T03:15:12;35.67;;;16.85;;
16727;SDS011;8482;54.396;18.590;2022-10-31T03:17:54;30.30;;;15.20;;
16727;SDS011;8482;54.396;18.590;2022-10-31T03:24:11;30.83;;;17.55;;
16727;SDS011;8482;54.396;18.590;2022-10-31T03:26:44;33.72;;;16.83;;
16727;SDS011;8482;54.396;18.590;2022-10-31T03:29:19;29.20;;;15.60;;
16727;SDS011;8482;54.396;18.590;2022-10-31T03:31:59;29.98;;;14.38;;
16727;SDS011;8482;54.396;18.590;2022-10-31T03:34:33;32.78;;;14.75;;
16727;SDS011;8482;54.396;18.590;2022-10-31T03:37:04;25.67;;;13.73;;
16727;SDS011;8482;54.396;18.590;2022-10-31T03:39:36;26.75;;;13.80;;
16727;SDS011;8482;54.396;18.590;2022-10-31T03:42:07;26.42;;;14.07;;
16727;SDS011;8482;54.396;18.590;2022-10-31T03:44:40;24.73;;;13.23;;
16727;SDS011;8482;54.396;18.590;2022-10-31T03:47:12;26.05;;;13.38;;
16727;SDS011;8482;54.396;18.590;2022-10-31T03:49:38;23.42;;;13.38;;
16727;SDS011;8482;54.396;18.590;2022-10-31T03:54:52;25.95;;;12.73;;
16727;SDS011;8482;54.396;18.590;2022-10-31T03:57:41;23.30;;;12.77;;
16727;SDS011;8482;54.396;18.590;2022-10-31T04:00:28;25.33;;;13.15;;
16727;SDS011;8482;54.396;18.590;2022-10-31T04:03:03;26.42;;;13.57;;
16727;SDS011;8482;54.396;18.590;2022-10-31T04:05:42;23.23;;;12.60;;
16727;SDS011;8482;54.396;18.590;2022-10-31T04:08:15;28.65;;;14.77;;
16727;SDS011;8482;54.396;18.590;2022-10-31T04:10:48;25.10;;;14.80;;
16727;SDS011;8482;54.396;18.590;2022-10-31T04:13:17;25.35;;;14.00;;
16727;SDS011;8482;54.396;18.590;2022-10-31T04:15:51;30.63;;;14.70;;
16727;SDS011;8482;54.396;18.590;2022-10-31T04:18:20;28.77;;;15.50;;
16727;SDS011;8482;54.396;18.590;2022-10-31T04:20:48;28.00;;;15.73;;
16727;SDS011;8482;54.396;18.590;2022-10-31T04:23:18;27.95;;;16.45;;
16727;SDS011;8482;54.396;18.590;2022-10-31T04:25:49;27.55;;;16.20;;
16727;SDS011;8482;54.396;18.590;2022-10-31T04:28:15;28.27;;;16.20;;
16727;SDS011;8482;54.396;18.590;2022-10-31T04:30:40;28.42;;;16.73;;
16727;SDS011;8482;54.396;18.590;2022-10-31T04:33:06;28.77;;;16.10;;
16727;SDS011;8482;54.396;18.590;2022-10-31T04:35:32;29.23;;;15.68;;
16727;SDS011;8482;54.396;18.590;2022-10-31T04:37:58;27.13;;;14.88;;
16727;SDS011;8482;54.396;18.590;2022-10-31T04:40:24;25.33;;;14.68;;
16727;SDS011;8482;54.396;18.590;2022-10-31T04:42:49;26.98;;;15.00;;
16727;SDS011;8482;54.396;18.590;2022-10-31T04:45:15;22.83;;;13.55;;
16727;SDS011;8482;54.396;18.590;2022-10-31T04:47:41;24.63;;;14.30;;
16727;SDS011;8482;54.396;18.590;2022-10-31T04:50:07;23.35;;;13.80;;
16727;SDS011;8482;54.396;18.590;2022-10-31T04:52:38;24.63;;;14.27;;
16727;SDS011;8482;54.396;18.590;2022-10-31T04:55:05;24.55;;;14.48;;
16727;SDS011;8482;54.396;18.590;2022-10-31T04:57:32;23.42;;;14.38;;
16727;SDS011;8482;54.396;18.590;2022-10-31T05:00:04;22.85;;;14.07;;
16727;SDS011;8482;54.396;18.590;2022-10-31T05:02:31;25.70;;;14.90;;
16727;SDS011;8482;54.396;18.590;2022-10-31T05:04:57;25.52;;;14.93;;
16727;SDS011;8482;54.396;18.590;2022-10-31T05:07:23;27.02;;;14.82;;
16727;SDS011;8482;54.396;18.590;2022-10-31T05:09:48;23.25;;;15.38;;
16727;SDS011;8482;54.396;18.590;2022-10-31T05:12:14;23.45;;;14.18;;
16727;SDS011;8482;54.396;18.590;2022-10-31T05:14:40;24.63;;;14.35;;
16727;SDS011;8482;54.396;18.590;2022-10-31T05:17:06;23.08;;;14.70;;
16727;SDS011;8482;54.396;18.590;2022-10-31T05:19:32;24.70;;;15.43;;
16727;SDS011;8482;54.396;18.590;2022-10-31T05:21:57;25.83;;;16.77;;
16727;SDS011;8482;54.396;18.590;2022-10-31T05:24:23;28.63;;;15.98;;
16727;SDS011;8482;54.396;18.590;2022-10-31T05:26:49;27.40;;;15.80;;
16727;SDS011;8482;54.396;18.590;2022-10-31T05:29:15;30.20;;;16.20;;
16727;SDS011;8482;54.396;18.590;2022-10-31T05:31:41;30.83;;;16.98;;
16727;SDS011;8482;54.396;18.590;2022-10-31T05:34:06;30.52;;;16.58;;
16727;SDS011;8482;54.396;18.590;2022-10-31T05:36:32;33.05;;;17.00;;
16727;SDS011;8482;54.396;18.590;2022-10-31T05:38:58;31.40;;;16.88;;
16727;SDS011;8482;54.396;18.590;2022-10-31T05:41:24;29.40;;;16.75;;
16727;SDS011;8482;54.396;18.590;2022-10-31T05:43:50;29.20;;;15.75;;
16727;SDS011;8482;54.396;18.590;2022-10-31T05:46:15;30.52;;;15.77;;
16727;SDS011;8482;54.396;18.590;2022-10-31T05:48:41;28.30;;;16.50;;
16727;SDS011;8482;54.396;18.590;2022-10-31T05:51:07;30.15;;;17.17;;
16727;SDS011;8482;54.396;18.590;2022-10-31T05:53:33;30.45;;;17.70;;
16727;SDS011;8482;54.396;18.590;2022-10-31T05:55:58;32.58;;;18.30;;
16727;SDS011;8482;54.396;18.590;2022-10-31T05:58:24;29.77;;;17.52;;
16727;SDS011;8482;54.396;18.590;2022-10-31T06:00:50;31.15;;;17.15;;
16727;SDS011;8482;54.396;18.590;2022-10-31T06:03:16;26.70;;;16.13;;
16727;SDS011;8482;54.396;18.590;2022-10-31T06:05:42;28.50;;;16.65;;
16727;SDS011;8482;54.396;18.590;2022-10-31T06:08:07;33.88;;;17.23;;
16727;SDS011;8482;54.396;18.590;2022-10-31T06:10:33;31.65;;;16.67;;
16727;SDS011;8482;54.396;18.590;2022-10-31T06:12:59;29.02;;;15.98;;
16727;SDS011;8482;54.396;18.590;2022-10-31T06:15:25;27.80;;;15.95;;
16727;SDS011;8482;54.396;18.590;2022-10-31T06:18:01;28.98;;;16.45;;
16727;SDS011;8482;54.396;18.590;2022-10-31T06:20:29;27.85;;;16.02;;
16727;SDS011;8482;54.396;18.590;2022-10-31T06:22:56;28.33;;;16.65;;
16727;SDS011;8482;54.396;18.590;2022-10-31T06:25:22;28.40;;;16.58;;
16727;SDS011;8482;54.396;18.590;2022-10-31T06:27:48;27.30;;;15.60;;
16727;SDS011;8482;54.396;18.590;2022-10-31T06:30:13;28.88;;;16.23;;
16727;SDS011;8482;54.396;18.590;2022-10-31T06:32:40;29.95;;;16.55;;
16727;SDS011;8482;54.396;18.590;2022-10-31T06:35:05;29.02;;;15.30;;
16727;SDS011;8482;54.396;18.590;2022-10-31T06:37:32;25.08;;;15.60;;
16727;SDS011;8482;54.396;18.590;2022-10-31T06:39:57;26.88;;;15.48;;
16727;SDS011;8482;54.396;18.590;2022-10-31T06:42:23;26.63;;;16.45;;
16727;SDS011;8482;54.396;18.590;2022-10-31T06:44:49;29.13;;;16.10;;
16727;SDS011;8482;54.396;18.590;2022-10-31T06:47:15;26.77;;;16.60;;
16727;SDS011;8482;54.396;18.590;2022-10-31T06:49:41;30.05;;;16.92;;
16727;SDS011;8482;54.396;18.590;2022-10-31T06:52:07;30.98;;;15.98;;
16727;SDS011;8482;54.396;18.590;2022-10-31T06:54:33;27.10;;;15.40;;
16727;SDS011;8482;54.396;18.590;2022-10-31T06:56:58;26.45;;;15.13;;
16727;SDS011;8482;54.396;18.590;2022-10-31T06:59:24;23.92;;;14.43;;
16727;SDS011;8482;54.396;18.590;2022-10-31T07:01:50;29.58;;;16.95;;
16727;SDS011;8482;54.396;18.590;2022-10-31T07:04:16;26.38;;;14.40;;
16727;SDS011;8482;54.396;18.590;2022-10-31T07:06:42;25.60;;;15.27;;
16727;SDS011;8482;54.396;18.590;2022-10-31T07:09:07;27.40;;;15.10;;
16727;SDS011;8482;54.396;18.590;2022-10-31T07:11:33;23.63;;;14.43;;
16727;SDS011;8482;54.396;18.590;2022-10-31T07:13:59;26.08;;;14.88;;
16727;SDS011;8482;54.396;18.590;2022-10-31T07:16:25;25.15;;;14.55;;
16727;SDS011;8482;54.396;18.590;2022-10-31T07:18:52;25.75;;;14.18;;
16727;SDS011;8482;54.396;18.590;2022-10-31T07:21:17;22.42;;;13.45;;
16727;SDS011;8482;54.396;18.590;2022-10-31T07:23:43;26.80;;;15.10;;
16727;SDS011;8482;54.396;18.590;2022-10-31T07:26:12;24.40;;;15.60;;
16727;SDS011;8482;54.396;18.590;2022-10-31T07:28:38;22.10;;;13.25;;
16727;SDS011;8482;54.396;18.590;2022-10-31T07:31:04;24.83;;;14.68;;
16727;SDS011;8482;54.396;18.590;2022-10-31T07:33:30;22.30;;;13.40;;
16727;SDS011;8482;54.396;18.590;2022-10-31T07:35:56;24.30;;;14.23;;
16727;SDS011;8482;54.396;18.590;2022-10-31T07:38:22;23.52;;;14.20;;
16727;SDS011;8482;54.396;18.590;2022-10-31T07:40:51;24.83;;;14.13;;
16727;SDS011;8482;54.396;18.590;2022-10-31T07:43:17;23.42;;;13.55;;
16727;SDS011;8482;54.396;18.590;2022-10-31T07:45:48;22.88;;;14.10;;
16727;SDS011;8482;54.396;18.590;2022-10-31T07:48:18;22.30;;;13.95;;
16727;SDS011;8482;54.396;18.590;2022-10-31T07:50:45;21.83;;;13.52;;
16727;SDS011;8482;54.396;18.590;2022-10-31T07:53:11;23.85;;;14.45;;
16727;SDS011;8482;54.396;18.590;2022-10-31T07:55:39;23.83;;;13.82;;
16727;SDS011;8482;54.396;18.590;2022-10-31T07:58:09;24.60;;;14.27;;
16727;SDS011;8482;54.396;18.590;2022-10-31T08:00:41;22.13;;;13.90;;
16727;SDS011;8482;54.396;18.590;2022-10-31T08:03:13;20.83;;;13.25;;
16727;SDS011;8482;54.396;18.590;2022-10-31T08:05:42;22.98;;;13.30;;
16727;SDS011;8482;54.396;18.590;2022-10-31T08:08:11;20.90;;;13.50;;
16727;SDS011;8482;54.396;18.590;2022-10-31T08:10:38;22.13;;;13.73;;
16727;SDS011;8482;54.396;18.590;2022-10-31T08:13:09;23.02;;;13.32;;
16727;SDS011;8482;54.396;18.590;2022-10-31T08:15:37;20.85;;;13.70;;
16727;SDS011;8482;54.396;18.590;2022-10-31T08:18:06;22.50;;;13.60;;
16727;SDS011;8482;54.396;18.590;2022-10-31T08:20:40;21.20;;;12.80;;
16727;SDS011;8482;54.396;18.590;2022-10-31T08:23:08;23.10;;;13.45;;
16727;SDS011;8482;54.396;18.590;2022-10-31T08:25:36;19.92;;;12.60;;
16727;SDS011;8482;54.396;18.590;2022-10-31T08:28:03;20.70;;;12.57;;
16727;SDS011;8482;54.396;18.590;2022-10-31T08:30:31;20.00;;;12.57;;
16727;SDS011;8482;54.396;18.590;2022-10-31T08:33:03;19.83;;;12.38;;
16727;SDS011;8482;54.396;18.590;2022-10-31T08:35:30;18.92;;;12.20;;
16727;SDS011;8482;54.396;18.590;2022-10-31T08:37:58;20.45;;;12.07;;
16727;SDS011;8482;54.396;18.590;2022-10-31T08:40:25;17.92;;;11.75;;
16727;SDS011;8482;54.396;18.590;2022-10-31T08:42:57;17.27;;;10.98;;
16727;SDS011;8482;54.396;18.590;2022-10-31T08:45:28;18.35;;;11.60;;
16727;SDS011;8482;54.396;18.590;2022-10-31T08:47:56;19.52;;;12.45;;
16727;SDS011;8482;54.396;18.590;2022-10-31T08:50:29;18.88;;;12.23;;
16727;SDS011;8482;54.396;18.590;2022-10-31T08:53:01;18.95;;;12.77;;
16727;SDS011;8482;54.396;18.590;2022-10-31T08:55:33;21.00;;;12.93;;
16727;SDS011;8482;54.396;18.590;2022-10-31T08:58:00;20.25;;;13.75;;
16727;SDS011;8482;54.396;18.590;2022-10-31T09:00:32;18.67;;;12.63;;
16727;SDS011;8482;54.396;18.590;2022-10-31T09:03:00;17.92;;;12.00;;
16727;SDS011;8482;54.396;18.590;2022-10-31T09:05:33;18.60;;;12.02;;
16727;SDS011;8482;54.396;18.590;2022-10-31T09:08:00;17.33;;;11.35;;
16727;SDS011;8482;54.396;18.590;2022-10-31T09:10:29;23.48;;;13.55;;
16727;SDS011;8482;54.396;18.590;2022-10-31T09:13:21;18.63;;;12.27;;
16727;SDS011;8482;54.396;18.590;2022-10-31T09:15:47;19.58;;;11.68;;
16727;SDS011;8482;54.396;18.590;2022-10-31T09:18:15;18.08;;;12.50;;
16727;SDS011;8482;54.396;18.590;2022-10-31T09:20:45;19.13;;;12.85;;
16727;SDS011;8482;54.396;18.590;2022-10-31T09:25:41;19.67;;;13.32;;
16727;SDS011;8482;54.396;18.590;2022-10-31T09:28:08;20.75;;;13.55;;
16727;SDS011;8482;54.396;18.590;2022-10-31T09:30:37;20.73;;;13.70;;
16727;SDS011;8482;54.396;18.590;2022-10-31T09:33:05;20.33;;;13.55;;
16727;SDS011;8482;54.396;18.590;2022-10-31T09:35:36;21.67;;;13.48;;
16727;SDS011;8482;54.396;18.590;2022-10-31T09:38:04;22.05;;;13.68;;
16727;SDS011;8482;54.396;18.590;2022-10-31T09:52:44;24.35;;;15.15;;
16727;SDS011;8482;54.396;18.590;2022-10-31T09:55:22;23.48;;;15.23;;
16727;SDS011;8482;54.396;18.590;2022-10-31T09:58:14;23.73;;;15.13;;
16727;SDS011;8482;54.396;18.590;2022-10-31T10:00:45;24.50;;;16.33;;
16727;SDS011;8482;54.396;18.590;2022-10-31T10:06:17;22.88;;;14.93;;
16727;SDS011;8482;54.396;18.590;2022-10-31T10:08:49;25.42;;;16.38;;
16727;SDS011;8482;54.396;18.590;2022-10-31T10:11:22;23.67;;;15.63;;
16727;SDS011;8482;54.396;18.590;2022-10-31T10:16:54;24.00;;;14.43;;
16727;SDS011;8482;54.396;18.590;2022-10-31T10:22:47;24.88;;;16.35;;
16727;SDS011;8482;54.396;18.590;2022-10-31T10:28:08;25.10;;;15.85;;
16727;SDS011;8482;54.396;18.590;2022-10-31T10:30:56;24.55;;;15.82;;
16727;SDS011;8482;54.396;18.590;2022-10-31T10:33:26;26.67;;;16.38;;
16727;SDS011;8482;54.396;18.590;2022-10-31T10:36:01;27.08;;;16.50;;
16727;SDS011;8482;54.396;18.590;2022-10-31T10:41:17;26.15;;;15.85;;
16727;SDS011;8482;54.396;18.590;2022-10-31T10:43:50;26.85;;;16.70;;
16727;SDS011;8482;54.396;18.590;2022-10-31T10:52:21;25.92;;;15.82;;
16727;SDS011;8482;54.396;18.590;2022-10-31T10:58:07;27.05;;;15.07;;
16727;SDS011;8482;54.396;18.590;2022-10-31T11:00:38;25.75;;;15.48;;
16727;SDS011;8482;54.396;18.590;2022-10-31T11:03:04;26.63;;;15.20;;
16727;SDS011;8482;54.396;18.590;2022-10-31T11:08:25;26.25;;;15.82;;
16727;SDS011;8482;54.396;18.590;2022-10-31T11:11:01;25.33;;;15.95;;
16727;SDS011;8482;54.396;18.590;2022-10-31T11:13:52;25.55;;;16.27;;
16727;SDS011;8482;54.396;18.590;2022-10-31T11:16:38;26.25;;;16.20;;
16727;SDS011;8482;54.396;18.590;2022-10-31T11:21:47;26.85;;;16.60;;
16727;SDS011;8482;54.396;18.590;2022-10-31T11:24:15;27.17;;;16.67;;
16727;SDS011;8482;54.396;18.590;2022-10-31T11:26:45;25.42;;;15.80;;
16727;SDS011;8482;54.396;18.590;2022-10-31T11:29:20;22.38;;;14.57;;
16727;SDS011;8482;54.396;18.590;2022-10-31T11:31:51;24.92;;;14.70;;
16727;SDS011;8482;54.396;18.590;2022-10-31T11:34:30;23.48;;;15.52;;
16727;SDS011;8482;54.396;18.590;2022-10-31T11:37:15;26.05;;;14.60;;
16727;SDS011;8482;54.396;18.590;2022-10-31T11:39:54;23.55;;;13.93;;
16727;SDS011;8482;54.396;18.590;2022-10-31T11:42:27;24.00;;;14.82;;
16727;SDS011;8482;54.396;18.590;2022-10-31T11:45:06;26.38;;;15.63;;
16727;SDS011;8482;54.396;18.590;2022-10-31T11:47:58;22.58;;;14.07;;
16727;SDS011;8482;54.396;18.590;2022-10-31T11:56:14;23.70;;;13.82;;
16727;SDS011;8482;54.396;18.590;2022-10-31T11:58:41;21.00;;;14.05;;
16727;SDS011;8482;54.396;18.590;2022-10-31T12:01:22;20.95;;;14.05;;
16727;SDS011;8482;54.396;18.590;2022-10-31T12:06:38;23.10;;;13.95;;
16727;SDS011;8482;54.396;18.590;2022-10-31T12:09:26;22.58;;;14.30;;
16727;SDS011;8482;54.396;18.590;2022-10-31T12:12:20;22.30;;;13.75;;
16727;SDS011;8482;54.396;18.590;2022-10-31T12:15:33;23.13;;;12.95;;
16727;SDS011;8482;54.396;18.590;2022-10-31T12:35:44;16.42;;;10.93;;
16727;SDS011;8482;54.396;18.590;2022-10-31T12:44:52;18.23;;;11.85;;
16727;SDS011;8482;54.396;18.590;2022-10-31T12:48:06;18.63;;;11.82;;
16727;SDS011;8482;54.396;18.590;2022-10-31T12:50:50;18.08;;;11.88;;
16727;SDS011;8482;54.396;18.590;2022-10-31T12:56:36;15.02;;;10.88;;
16727;SDS011;8482;54.396;18.590;2022-10-31T12:59:17;18.27;;;11.88;;
16727;SDS011;8482;54.396;18.590;2022-10-31T13:02:14;17.33;;;12.02;;
16727;SDS011;8482;54.396;18.590;2022-10-31T13:04:57;19.13;;;12.15;;
16727;SDS011;8482;54.396;18.590;2022-10-31T13:07:41;18.23;;;12.80;;
16727;SDS011;8482;54.396;18.590;2022-10-31T13:10:19;19.80;;;12.82;;
16727;SDS011;8482;54.396;18.590;2022-10-31T13:12:51;18.98;;;12.73;;
16727;SDS011;8482;54.396;18.590;2022-10-31T13:15:25;18.70;;;12.93;;
16727;SDS011;8482;54.396;18.590;2022-10-31T13:17:59;19.75;;;12.80;;
16727;SDS011;8482;54.396;18.590;2022-10-31T13:20:45;21.33;;;13.38;;
16727;SDS011;8482;54.396;18.590;2022-10-31T13:25:59;18.35;;;12.95;;
16727;SDS011;8482;54.396;18.590;2022-10-31T13:31:39;20.23;;;13.38;;
16727;SDS011;8482;54.396;18.590;2022-10-31T13:34:10;21.45;;;14.15;;
16727;SDS011;8482;54.396;18.590;2022-10-31T13:39:38;19.48;;;12.88;;
16727;SDS011;8482;54.396;18.590;2022-10-31T13:45:52;17.58;;;11.63;;
16727;SDS011;8482;54.396;18.590;2022-10-31T13:48:39;19.08;;;11.70;;
16727;SDS011;8482;54.396;18.590;2022-10-31T13:51:08;17.85;;;12.10;;
16727;SDS011;8482;54.396;18.590;2022-10-31T14:01:27;15.20;;;10.82;;
16727;SDS011;8482;54.396;18.590;2022-10-31T14:06:46;16.05;;;10.82;;
16727;SDS011;8482;54.396;18.590;2022-10-31T14:12:07;18.15;;;12.18;;
16727;SDS011;8482;54.396;18.590;2022-10-31T14:15:20;17.27;;;11.63;;
16727;SDS011;8482;54.396;18.590;2022-10-31T14:18:03;16.92;;;11.55;;
16727;SDS011;8482;54.396;18.590;2022-10-31T14:20:33;16.90;;;11.90;;
16727;SDS011;8482;54.396;18.590;2022-10-31T14:23:28;17.02;;;11.73;;
16727;SDS011;8482;54.396;18.590;2022-10-31T14:26:50;17.45;;;11.38;;
16727;SDS011;8482;54.396;18.590;2022-10-31T14:28:55;18.98;;;13.00;;
16727;SDS011;8482;54.396;18.590;2022-10-31T14:43:13;16.42;;;11.15;;
16727;SDS011;8482;54.396;18.590;2022-10-31T14:49:06;15.75;;;11.00;;
16727;SDS011;8482;54.396;18.590;2022-10-31T14:52:04;15.27;;;10.73;;
16727;SDS011;8482;54.396;18.590;2022-10-31T14:54:40;15.38;;;10.45;;
16727;SDS011;8482;54.396;18.590;2022-10-31T14:57:20;14.98;;;10.55;;
16727;SDS011;8482;54.396;18.590;2022-10-31T14:59:55;16.20;;;11.57;;
16727;SDS011;8482;54.396;18.590;2022-10-31T15:05:13;14.63;;;10.10;;
16727;SDS011;8482;54.396;18.590;2022-10-31T15:07:54;16.25;;;10.95;;
16727;SDS011;8482;54.396;18.590;2022-10-31T15:10:24;16.92;;;10.98;;
16727;SDS011;8482;54.396;18.590;2022-10-31T15:13:08;17.60;;;10.20;;
16727;SDS011;8482;54.396;18.590;2022-10-31T15:15:46;17.88;;;12.00;;
16727;SDS011;8482;54.396;18.590;2022-10-31T15:18:17;18.42;;;12.15;;
16727;SDS011;8482;54.396;18.590;2022-10-31T15:20:51;17.40;;;11.45;;
16727;SDS011;8482;54.396;18.590;2022-10-31T15:23:24;17.55;;;12.05;;
16727;SDS011;8482;54.396;18.590;2022-10-31T15:26:00;17.60;;;12.52;;
16727;SDS011;8482;54.396;18.590;2022-10-31T15:28:29;16.95;;;11.02;;
16727;SDS011;8482;54.396;18.590;2022-10-31T15:30:57;16.83;;;11.18;;
16727;SDS011;8482;54.396;18.590;2022-10-31T15:33:32;16.23;;;10.88;;
16727;SDS011;8482;54.396;18.590;2022-10-31T15:36:16;17.45;;;10.48;;
16727;SDS011;8482;54.396;18.590;2022-10-31T15:38:49;17.52;;;11.63;;
16727;SDS011;8482;54.396;18.590;2022-10-31T15:41:23;15.82;;;10.57;;
16727;SDS011;8482;54.396;18.590;2022-10-31T15:47:06;16.02;;;10.65;;
16727;SDS011;8482;54.396;18.590;2022-10-31T15:49:42;15.57;;;10.20;;
16727;SDS011;8482;54.396;18.590;2022-10-31T15:57:48;17.63;;;10.10;;
16727;SDS011;8482;54.396;18.590;2022-10-31T16:05:44;17.65;;;10.57;;
16727;SDS011;8482;54.396;18.590;2022-10-31T16:08:23;18.80;;;10.68;;
16727;SDS011;8482;54.396;18.590;2022-10-31T16:10:55;18.80;;;11.05;;
16727;SDS011;8482;54.396;18.590;2022-10-31T16:13:28;15.00;;;9.77;;
16727;SDS011;8482;54.396;18.590;2022-10-31T16:15:59;17.13;;;10.43;;
16727;SDS011;8482;54.396;18.590;2022-10-31T16:18:29;15.35;;;10.23;;
16727;SDS011;8482;54.396;18.590;2022-10-31T16:21:02;16.13;;;10.13;;
16727;SDS011;8482;54.396;18.590;2022-10-31T16:23:29;17.95;;;10.40;;
16727;SDS011;8482;54.396;18.590;2022-10-31T16:25:55;16.80;;;9.85;;
16727;SDS011;8482;54.396;18.590;2022-10-31T16:28:22;14.85;;;9.45;;
16727;SDS011;8482;54.396;18.590;2022-10-31T16:30:52;15.82;;;9.50;;
16727;SDS011;8482;54.396;18.590;2022-10-31T16:33:30;13.70;;;9.13;;
16727;SDS011;8482;54.396;18.590;2022-10-31T16:39:04;15.90;;;9.43;;
16727;SDS011;8482;54.396;18.590;2022-10-31T16:41:32;13.52;;;9.02;;
16727;SDS011;8482;54.396;18.590;2022-10-31T16:44:16;14.45;;;9.38;;
16727;SDS011;8482;54.396;18.590;2022-10-31T16:47:13;13.45;;;8.63;;
16727;SDS011;8482;54.396;18.590;2022-10-31T16:49:43;16.40;;;9.65;;
16727;SDS011;8482;54.396;18.590;2022-10-31T16:52:14;14.57;;;9.75;;
16727;SDS011;8482;54.396;18.590;2022-10-31T16:54:41;13.95;;;9.70;;
16727;SDS011;8482;54.396;18.590;2022-10-31T16:57:09;16.45;;;9.57;;
16727;SDS011;8482;54.396;18.590;2022-10-31T16:59:46;14.38;;;9.02;;
16727;SDS011;8482;54.396;18.590;2022-10-31T17:02:18;14.82;;;8.82;;
16727;SDS011;8482;54.396;18.590;2022-10-31T17:04:45;12.88;;;8.75;;
16727;SDS011;8482;54.396;18.590;2022-10-31T17:07:11;14.13;;;9.02;;
16727;SDS011;8482;54.396;18.590;2022-10-31T17:09:36;12.45;;;8.07;;
16727;SDS011;8482;54.396;18.590;2022-10-31T17:12:02;13.43;;;8.63;;
16727;SDS011;8482;54.396;18.590;2022-10-31T17:14:31;14.38;;;9.00;;
16727;SDS011;8482;54.396;18.590;2022-10-31T17:16:59;12.80;;;9.15;;
16727;SDS011;8482;54.396;18.590;2022-10-31T17:19:24;13.85;;;9.13;;
16727;SDS011;8482;54.396;18.590;2022-10-31T17:21:50;13.25;;;8.93;;
16727;SDS011;8482;54.396;18.590;2022-10-31T17:24:16;13.90;;;9.20;;
16727;SDS011;8482;54.396;18.590;2022-10-31T17:26:42;14.13;;;8.82;;
16727;SDS011;8482;54.396;18.590;2022-10-31T17:29:08;13.77;;;8.98;;
16727;SDS011;8482;54.396;18.590;2022-10-31T17:31:34;13.88;;;8.40;;
16727;SDS011;8482;54.396;18.590;2022-10-31T17:34:03;12.88;;;8.55;;
16727;SDS011;8482;54.396;18.590;2022-10-31T17:36:30;14.90;;;8.82;;
16727;SDS011;8482;54.396;18.590;2022-10-31T17:38:58;13.00;;;8.63;;
16727;SDS011;8482;54.396;18.590;2022-10-31T17:41:24;13.35;;;8.13;;
16727;SDS011;8482;54.396;18.590;2022-10-31T17:43:53;15.85;;;8.65;;
16727;SDS011;8482;54.396;18.590;2022-10-31T17:46:20;13.55;;;8.57;;
16727;SDS011;8482;54.396;18.590;2022-10-31T17:48:46;13.40;;;8.73;;
16727;SDS011;8482;54.396;18.590;2022-10-31T17:51:12;13.52;;;8.07;;